Levittown, New York
Current Conditions -  °F | °C
As of 11:53 AM on Thursday 23 Oct 2014 (Local Time) from KFRG Reporting Station
Overcast Overcast  
Wind Chill: 52°   Ceiling: 2300
Heat Index: 52°   Visibility: 10mi
Dew Point: 46°   Wind: 15mph
Humidity: 80%   Direction: 350°N
Pressure: 29.67"   Gusts: 23mph
Location:  40.73°N, 73.51°W
Report Text: KFRG 231553Z 35013G20KT 10SM OVC023 11/08 A2967 RMK AO2 SLP049 T01110078
Loading
Personal Weather Stations






























Interactive Weather Map New forecast layout! Learn more

10-Day Weather Forecast

Advertisements
Track Severe Weather on mobile